Ahmedabad, India

12:50 AM IST on October 02, 2014 (GMT +0530)
Ahmedabad | Change Station
CLOSE
Current Station
Airport
Location: Ahmedabad,
Elevation: 180 ft
Nearby Weather Stations

Elev 180 ft 23.08 °N, 72.63 °E | Updated 40 minutes ago

Haze
Haze
82 °F
Feels Like 91 °F
N
0
Wind Variable Wind from North

Today
High -- | Low -- °F
--% Chance of Precip.
Yesterday
High -- | Low -- °F
Precip. -- in
6:31 AM 6:26 PM
Waxing Crescent, 50% visible
Pressure 29.89 in
Visibility 2.5 miles
Clouds Few 2000 ft
Heat Index 91 °F
Dew Point 77 °F
Humidity 84%
Rainfall 0.00 in
Snow Depth Not available.
UV 0 out of 12
Pollen Not available.
Air Quality Not available.
Flu Activity Not available.
METAR VAAH 011840Z 00000KT 4000 HZ FEW020 28/25 Q1012 NOSIG

More Conditions Fewer Conditions

Pressure 29.89 in
Visibility 2.5 miles
Clouds Few 2000 ft
Heat Index 91 °F
Dew Point 77 °F
Humidity 84%
Rainfall 0.00 in
Snow Depth Not available.
UV 0 out of 12
Pollen Not available.
Air Quality Not available.
Flu Activity Not available.
METAR VAAH 011840Z 00000KT 4000 HZ FEW020 28/25 Q1012 NOSIG

More Conditions Fewer Conditions

10-Day Weather Forecast

Almanac

Astronomy

Oct. 02, 2014 Rise Set
Actual Time 6:31 AM IST 6:26 PM IST
Civil Twilight 6:08 AM IST 6:48 PM IST
Nautical Twilight 5:42 AM IST 7:14 PM IST
Astronomical Twilight 5:16 AM IST 7:40 PM IST
Moon 1:33 PM IST (10/2) No Moon Set
Length of Visible Light 12h 39m
Length of Day
11h 54m
Tomorrow will be 1m 18s shorter.
Waxing Crescent, 50% of the Moon is Illuminated
Oct 1
Waxing Crescent
Oct 1
First Quarter
Oct 8
Full
Oct 15
Last Quarter
Oct 23
New

Yesterday's Extremes

Country Highs Country Lows

Community

WunderPhotos

Upload Photos

1,758,010 photos uploaded!

WunderBlogs® & News

Nearby

Snow Depth

Not available.

Earthquake Activity

City Distance Mag. Time & Date
No recent earthquake activity has been reported nearby.
Minimum magnitude displayed is 2.5.

Coastal Water Temperatures

Place Temperature
No Stations Reporting

Nearby Weather Stations